Time;durP1;ratioP1;P1;durP2;ratioP2;P2;SDS_P1;SDS_P2;PMS_P1;PMS_P2;Temp;Humidity;BMP_temperature;BMP_pressure;BME280_temperature;BME280_humidity;BME280_pressure;Samples;Min_cycle;Max_cycle;Signal;HPM_P1;HPM_P2
2023/09/16 00:05:53;;;;;;;3.28;1.83;;;;;;;25.26;42.76;101404.88;21079872;28;20048;-62
2023/09/16 00:15:54;;;;;;;3.78;1.40;;;;;;;25.22;42.84;101414.19;21080134;28;20036;-62
2023/09/16 00:25:56;;;;;;;5.93;2.00;;;;;;;25.14;42.99;101412.88;21077933;28;20043;-62
2023/09/16 00:36:00;;;;;;;5.10;2.22;;;;;;;25.04;43.16;101408.19;21077030;28;20093;-62
2023/09/16 00:46:01;;;;;;;4.95;2.50;;;;;;;24.98;43.18;101423.41;21076507;28;20039;-62
2023/09/16 00:56:03;;;;;;;5.88;2.90;;;;;;;24.88;43.10;101406.72;21075066;28;20047;-61
2023/09/16 01:06:10;;;;;;;10.65;5.18;;;;;;;24.74;43.19;101392.59;21076527;28;20168;-62
2023/09/16 01:16:26;;;;;;;4.82;4.43;;;;;;;24.81;43.59;101412.66;21040681;28;20097;-62
2023/09/16 01:26:27;;;;;;;7.07;5.22;;;;;;;24.75;43.34;101425.03;21056753;28;20406;-62
2023/09/16 01:36:32;;;;;;;6.10;5.60;;;;;;;24.65;43.59;101408.38;21058217;28;20036;-61
2023/09/16 01:46:33;;;;;;;7.00;6.40;;;;;;;24.68;43.42;101407.75;21076548;28;20552;-61
2023/09/16 01:56:35;;;;;;;7.07;6.40;;;;;;;24.66;42.99;101401.63;21079731;28;20048;-60
2023/09/16 02:06:41;;;;;;;7.13;6.43;;;;;;;24.23;43.58;101353.88;21074483;28;20036;-60
2023/09/16 02:16:45;;;;;;;9.10;6.68;;;;;;;24.47;44.15;101397.91;21048474;28;21059;-59
2023/09/16 02:26:49;;;;;;;8.98;7.30;;;;;;;24.61;44.07;101421.28;21065888;28;20040;-60
2023/09/16 02:36:50;;;;;;;9.88;7.90;;;;;;;24.62;44.25;101436.09;21072381;28;20070;-59
2023/09/16 02:46:53;;;;;;;9.80;8.10;;;;;;;24.59;43.74;101440.31;21068216;28;20043;-58
2023/09/16 02:56:54;;;;;;;8.68;7.80;;;;;;;24.55;43.22;101434.44;21063219;28;20173;-60
2023/09/16 03:06:56;;;;;;;8.40;7.75;;;;;;;24.49;43.11;101438.44;21055269;28;20044;-60
2023/09/16 03:16:57;;;;;;;8.98;8.15;;;;;;;24.32;43.01;101433.22;21072524;28;20040;-60
2023/09/16 03:26:58;;;;;;;8.93;8.30;;;;;;;24.42;43.25;101453.88;21068005;28;20093;-58
2023/09/16 03:37:03;;;;;;;9.25;8.35;;;;;;;24.41;43.29;101455.00;21069335;28;20048;-60
2023/09/16 03:47:06;;;;;;;9.20;8.10;;;;;;;24.39;43.54;101455.31;21064400;28;20128;-58
2023/09/16 03:57:07;;;;;;;8.90;7.82;;;;;;;24.38;43.24;101447.22;21052482;28;20093;-60
2023/09/16 04:07:09;;;;;;;9.07;7.95;;;;;;;24.33;43.43;101451.69;21040646;28;20121;-60
2023/09/16 04:17:12;;;;;;;11.65;8.38;;;;;;;24.31;43.71;101437.16;21047296;28;20071;-58
2023/09/16 04:27:13;;;;;;;9.38;8.55;;;;;;;24.31;43.84;101448.34;21067941;28;20390;-59
2023/09/16 04:37:18;;;;;;;10.05;9.13;;;;;;;24.41;44.25;101424.25;21068140;28;20495;-60
2023/09/16 04:47:19;;;;;;;14.23;9.80;;;;;;;24.69;44.04;101436.56;21068608;28;20059;-59
2023/09/16 04:57:21;;;;;;;10.88;9.07;;;;;;;24.78;44.65;101418.84;21052890;28;20032;-60
2023/09/16 05:07:22;;;;;;;10.23;9.23;;;;;;;24.87;44.99;101415.41;21056002;28;20028;-60
2023/09/16 05:17:27;;;;;;;9.93;9.15;;;;;;;24.97;45.19;101412.47;21045160;28;20044;-61
2023/09/16 05:27:28;;;;;;;11.10;9.07;;;;;;;25.05;45.35;101409.03;21065213;28;20032;-61
2023/09/16 05:37:29;;;;;;;9.77;8.90;;;;;;;25.13;45.51;101408.41;21044976;28;20039;-60
2023/09/16 05:47:32;;;;;;;9.63;8.88;;;;;;;25.16;45.64;101385.41;21061420;28;20044;-60
2023/09/16 05:57:34;;;;;;;9.32;8.63;;;;;;;25.25;45.70;101394.81;21049602;28;20064;-60
2023/09/16 06:07:39;;;;;;;10.20;9.32;;;;;;;25.35;45.87;101393.84;21070946;28;20070;-62
2023/09/16 06:17:40;;;;;;;9.65;8.70;;;;;;;25.41;46.06;101391.81;21058074;28;20484;-61
2023/09/16 06:27:42;;;;;;;9.43;8.63;;;;;;;25.45;46.42;101382.50;21049540;28;20382;-61
2023/09/16 06:37:46;;;;;;;9.35;8.60;;;;;;;25.51;46.51;101380.47;21089064;28;20074;-61
2023/09/16 06:47:47;;;;;;;8.70;7.95;;;;;;;25.51;46.65;101374.84;21078951;28;20483;-60
2023/09/16 06:57:49;;;;;;;9.38;8.57;;;;;;;25.61;46.80;101397.13;21083188;28;20040;-60
2023/09/16 07:07:52;;;;;;;8.85;8.15;;;;;;;25.48;46.88;101364.28;21063534;28;20039;-61
2023/09/16 07:17:54;;;;;;;9.82;8.93;;;;;;;25.69;46.91;101382.44;21022268;28;20082;-61
2023/09/16 07:27:55;;;;;;;9.15;8.35;;;;;;;25.72;47.33;101387.44;21066279;28;20090;-61
2023/09/16 07:37:57;;;;;;;8.88;8.07;;;;;;;25.71;47.13;101368.97;21078247;28;20040;-62
2023/09/16 07:47:59;;;;;;;9.68;8.82;;;;;;;25.83;47.40;101388.16;21078496;28;20098;-63
2023/09/16 07:58:00;;;;;;;8.55;7.95;;;;;;;25.87;47.39;101391.19;21072378;28;20132;-61
2023/09/16 08:08:02;;;;;;;8.77;8.07;;;;;;;25.81;47.48;101379.22;21079991;28;20048;-61
2023/09/16 08:18:04;;;;;;;9.18;8.38;;;;;;;25.92;47.90;101379.88;21074653;28;20052;-61
2023/09/16 08:28:05;;;;;;;8.45;7.75;;;;;;;25.96;47.85;101378.13;21075090;28;20040;-62
2023/09/16 08:38:08;;;;;;;7.53;6.93;;;;;;;25.98;47.86;101367.44;21074122;28;20047;-60
2023/09/16 08:48:17;;;;;;;7.50;6.88;;;;;;;25.99;47.81;101378.38;21065230;28;20406;-60
2023/09/16 08:58:19;;;;;;;7.57;7.05;;;;;;;25.97;48.30;101368.59;21076550;28;20086;-60
2023/09/16 09:08:20;;;;;;;7.90;7.30;;;;;;;26.02;48.27;101362.88;21066794;28;20043;-60
2023/09/16 09:18:23;;;;;;;8.45;7.65;;;;;;;26.06;48.30;101375.16;21075712;28;20380;-61
2023/09/16 09:28:27;;;;;;;9.00;8.15;;;;;;;25.99;48.48;101363.53;21060261;28;20113;-60
2023/09/16 09:38:29;;;;;;;7.43;6.82;;;;;;;26.09;48.39;101374.56;21074590;28;20085;-61
2023/09/16 09:48:35;;;;;;;7.88;7.18;;;;;;;26.08;48.49;101378.50;21044554;28;20048;-60
2023/09/16 09:58:36;;;;;;;8.45;7.47;;;;;;;26.10;48.60;101376.22;21078165;28;20048;-62
2023/09/16 10:08:38;;;;;;;7.57;6.97;;;;;;;26.11;48.45;101361.06;21057872;28;20044;-61
2023/09/16 10:18:39;;;;;;;7.45;6.85;;;;;;;26.12;48.47;101368.34;21086798;28;20483;-60
2023/09/16 10:28:46;;;;;;;7.43;6.82;;;;;;;26.14;48.82;101366.06;21090055;28;20085;-62
2023/09/16 10:38:48;;;;;;;7.80;7.20;;;;;;;25.85;44.61;101378.31;21085096;28;20074;-60
2023/09/16 10:48:51;;;;;;;7.57;6.90;;;;;;;25.35;41.90;101377.88;21086321;28;20105;-60
2023/09/16 10:59:01;;;;;;;6.97;6.47;;;;;;;24.94;41.35;101369.13;21087768;28;20039;-60
2023/09/16 11:09:02;;;;;;;7.25;6.70;;;;;;;24.77;41.98;101361.19;21060637;28;20047;-60
2023/09/16 11:19:12;;;;;;;6.70;6.00;;;;;;;24.62;42.69;101385.72;21070478;28;20052;-60
2023/09/16 11:29:19;;;;;;;6.47;5.90;;;;;;;24.37;43.22;101381.19;21069677;28;20442;-59
2023/09/16 11:39:43;;;;;;;9.48;6.03;;;;;;;24.19;44.72;101391.09;21064300;28;20044;-60
2023/09/16 11:49:48;;;;;;;6.30;5.60;;;;;;;24.11;43.74;101387.00;21064637;28;20407;-60
2023/09/16 11:59:50;;;;;;;7.35;5.45;;;;;;;24.03;42.89;101401.59;21068039;28;20048;-61
2023/09/16 12:09:51;;;;;;;6.35;5.35;;;;;;;23.91;41.62;101387.13;21053873;28;20487;-62
2023/09/16 12:19:55;;;;;;;6.70;5.03;;;;;;;23.69;43.90;101407.97;21037751;28;20066;-61
2023/09/16 12:29:56;;;;;;;5.75;4.72;;;;;;;23.89;49.94;101398.63;21065501;28;20044;-61
2023/09/16 12:39:58;;;;;;;5.68;4.85;;;;;;;24.08;51.45;101405.19;21051376;28;20039;-61
2023/09/16 12:50:03;;;;;;;6.00;5.18;;;;;;;24.17;51.84;101396.16;21047888;28;20040;-61
2023/09/16 13:00:08;;;;;;;4.65;4.25;;;;;;;24.30;51.85;101412.28;21076413;28;20658;-61
2023/09/16 13:10:09;;;;;;;8.00;4.88;;;;;;;24.49;51.31;101449.63;21047076;28;20407;-62
2023/09/16 13:20:15;;;;;;;6.65;4.13;;;;;;;24.57;51.16;101451.78;21069556;28;20384;-61
2023/09/16 13:30:26;;;;;;;6.45;4.65;;;;;;;24.66;50.84;101459.56;21070032;28;20043;-61
2023/09/16 13:40:27;;;;;;;5.18;4.22;;;;;;;24.71;50.70;101451.13;21071531;28;20052;-61
2023/09/16 13:50:29;;;;;;;4.72;3.78;;;;;;;24.74;50.45;101458.91;21075262;28;20043;-62
2023/09/16 14:00:31;;;;;;;4.50;4.10;;;;;;;24.81;50.32;101474.22;21075220;28;20048;-62
2023/09/16 14:10:32;;;;;;;4.40;3.83;;;;;;;24.80;50.29;101466.97;21073858;28;20044;-61
2023/09/16 14:20:34;;;;;;;4.10;3.70;;;;;;;24.74;46.06;101454.16;21074165;28;20040;-61
2023/09/16 14:30:36;;;;;;;3.78;3.47;;;;;;;24.37;43.69;101453.91;21074214;28;20541;-61
2023/09/16 14:40:37;;;;;;;3.75;3.45;;;;;;;24.07;42.65;101466.97;21073483;28;20048;-61
2023/09/16 14:50:39;;;;;;;3.53;3.22;;;;;;;23.82;42.12;101468.81;21085749;28;20063;-61
2023/09/16 15:00:43;;;;;;;5.03;3.30;;;;;;;23.54;42.07;101445.16;21087717;28;20040;-60
2023/09/16 15:10:45;;;;;;;4.55;3.53;;;;;;;23.43;41.65;101432.38;21086454;28;20070;-61
2023/09/16 15:20:52;;;;;;;3.67;3.38;;;;;;;23.48;49.13;101434.31;21086107;28;20048;-63
2023/09/16 15:30:53;;;;;;;3.75;3.45;;;;;;;23.71;51.21;101411.31;21085046;28;20041;-61
2023/09/16 15:41:02;;;;;;;3.30;2.97;;;;;;;23.92;51.16;101406.44;21083650;28;20511;-63
2023/09/16 15:51:03;;;;;;;2.90;2.70;;;;;;;24.10;50.79;101407.69;21083973;28;20066;-61
2023/09/16 16:01:05;;;;;;;3.35;3.05;;;;;;;24.20;50.92;101395.59;21081964;28;20040;-60
2023/09/16 16:11:06;;;;;;;3.40;3.10;;;;;;;24.32;50.53;101382.88;21081696;28;20056;-62
2023/09/16 16:21:09;;;;;;;3.08;2.85;;;;;;;24.24;50.61;101352.78;21076074;28;20032;-61
2023/09/16 16:31:10;;;;;;;2.80;2.60;;;;;;;24.49;50.29;101370.47;21080567;28;20040;-62
2023/09/16 16:41:12;;;;;;;3.20;2.90;;;;;;;24.59;50.04;101365.59;21079102;28;20036;-62
2023/09/16 16:51:13;;;;;;;2.95;2.65;;;;;;;24.66;49.89;101362.44;21072878;28;20036;-61
2023/09/16 17:01:19;;;;;;;2.88;2.67;;;;;;;24.48;45.77;101343.63;21075459;28;20040;-62
2023/09/16 17:11:22;;;;;;;2.90;2.55;;;;;;;24.13;44.82;101334.41;21075625;28;20130;-62
2023/09/16 17:21:24;;;;;;;2.63;2.42;;;;;;;23.88;43.95;101329.88;21076947;28;20028;-62
2023/09/16 17:31:28;;;;;;;2.92;2.60;;;;;;;23.68;43.63;101313.25;21057893;28;20078;-61
2023/09/16 17:41:30;;;;;;;2.95;2.58;;;;;;;23.54;43.69;101304.66;21069125;28;20044;-62
2023/09/16 17:51:31;;;;;;;2.50;2.30;;;;;;;23.44;43.71;101299.16;21075460;28;20048;-61
2023/09/16 18:01:33;;;;;;;2.30;2.10;;;;;;;23.32;43.55;101289.19;21071921;28;20097;-61
2023/09/16 18:11:34;;;;;;;2.85;2.45;;;;;;;23.21;43.68;101283.94;21075376;28;20044;-62
2023/09/16 18:21:36;;;;;;;3.63;2.63;;;;;;;23.12;43.83;101269.75;21069645;28;20048;-62
2023/09/16 18:31:40;;;;;;;3.13;2.60;;;;;;;23.24;49.90;101253.47;21080563;28;20048;-61
2023/09/16 18:41:47;;;;;;;2.75;2.55;;;;;;;23.50;51.68;101239.31;21045428;28;20101;-62
2023/09/16 18:51:51;;;;;;;3.17;2.87;;;;;;;23.22;52.07;101152.41;21081614;28;20032;-62
2023/09/16 19:01:53;;;;;;;2.13;2.00;;;;;;;23.86;52.00;101208.31;21086111;28;20100;-63
2023/09/16 19:11:54;;;;;;;2.58;2.17;;;;;;;23.98;51.69;101176.03;21087424;28;20044;-62
2023/09/16 19:22:03;;;;;;;2.40;2.20;;;;;;;24.09;51.64;101183.19;21086953;28;20572;-61
2023/09/16 19:32:04;;;;;;;3.42;2.75;;;;;;;24.13;51.06;101161.06;21080252;28;20101;-61
2023/09/16 19:42:06;;;;;;;2.80;2.60;;;;;;;24.31;50.27;101163.06;21073894;28;20037;-61
2023/09/16 19:52:07;;;;;;;3.97;3.05;;;;;;;24.40;50.23;101173.63;21063031;28;20048;-62
2023/09/16 20:02:09;;;;;;;4.50;2.75;;;;;;;24.47;50.42;101137.75;21026441;28;20040;-62
2023/09/16 20:12:10;;;;;;;2.70;2.50;;;;;;;24.55;50.29;101137.06;21062583;28;20036;-60
2023/09/16 20:22:12;;;;;;;3.08;2.65;;;;;;;24.64;50.53;101154.00;21074155;28;20101;-61
2023/09/16 20:32:13;;;;;;;3.45;2.20;;;;;;;24.71;50.62;101160.91;21072566;28;20097;-61
2023/09/16 20:42:14;;;;;;;3.15;2.30;;;;;;;24.78;50.02;101155.75;21073037;28;20111;-61
2023/09/16 20:52:16;;;;;;;2.17;1.98;;;;;;;24.73;49.91;101127.00;21061759;28;20122;-61
2023/09/16 21:02:17;;;;;;;3.30;2.20;;;;;;;24.90;49.72;101152.50;21073880;28;20047;-60
2023/09/16 21:12:19;;;;;;;2.25;1.80;;;;;;;24.96;49.64;101156.88;21063343;28;20044;-60
2023/09/16 21:22:20;;;;;;;2.42;2.22;;;;;;;24.97;49.37;101154.91;21046455;28;20105;-61
2023/09/16 21:32:21;;;;;;;3.35;3.00;;;;;;;25.07;49.05;101168.78;21062542;28;20053;-61
2023/09/16 21:42:24;;;;;;;4.85;4.40;;;;;;;25.08;49.11;101170.47;21060439;28;20043;-60
2023/09/16 21:52:25;;;;;;;5.82;4.72;;;;;;;25.14;49.08;101171.22;21063758;28;20469;-61
2023/09/16 22:02:27;;;;;;;6.72;5.50;;;;;;;25.19;49.01;101171.94;21078106;28;20044;-61
2023/09/16 22:12:31;;;;;;;6.75;5.55;;;;;;;25.20;49.05;101173.66;21075773;28;20040;-63
2023/09/16 22:22:35;;;;;;;4.93;4.43;;;;;;;25.26;48.93;101178.00;21061717;28;20040;-62
2023/09/16 22:32:36;;;;;;;7.57;5.85;;;;;;;25.29;48.95;101155.00;21058419;28;20097;-60
2023/09/16 22:42:38;;;;;;;8.48;6.65;;;;;;;25.26;49.33;101164.00;21078777;28;20101;-61
2023/09/16 22:52:42;;;;;;;10.60;7.05;;;;;;;25.34;49.60;101182.09;21054976;28;20040;-62
2023/09/16 23:02:43;;;;;;;6.50;5.43;;;;;;;25.34;49.62;101196.94;21071312;28;20376;-62
2023/09/16 23:12:46;;;;;;;5.50;5.00;;;;;;;25.38;49.61;101201.91;21066180;28;20043;-62
2023/09/16 23:22:50;;;;;;;7.25;5.95;;;;;;;25.42;49.26;101206.59;21066448;28;20044;-61
2023/09/16 23:32:54;;;;;;;7.53;5.85;;;;;;;25.46;49.57;101237.63;21056421;28;20101;-60
2023/09/16 23:42:58;;;;;;;5.95;4.97;;;;;;;25.49;49.46;101248.25;20999730;28;20082;-59
2023/09/16 23:52:59;;;;;;;5.95;5.32;;;;;;;25.49;49.16;101256.66;21000870;28;20097;-60
